createdAt,value
2017-06-14T00:00:38.574Z,56.30
2017-06-14T00:03:07.403Z,56.50
2017-06-14T00:05:35.463Z,56.40
2017-06-14T00:08:03.542Z,56.60
2017-06-14T00:10:31.594Z,56.80
2017-06-14T00:12:59.658Z,57.10
2017-06-14T00:15:27.747Z,57.20
2017-06-14T00:17:55.803Z,57.10
2017-06-14T00:20:23.918Z,57.10
2017-06-14T00:22:51.956Z,57.00
2017-06-14T00:25:20.014Z,57.00
2017-06-14T00:27:48.094Z,57.00
2017-06-14T00:30:16.151Z,57.10
2017-06-14T00:32:44.227Z,57.00
2017-06-14T00:35:12.299Z,57.00
2017-06-14T00:37:40.352Z,57.10
2017-06-14T00:40:08.411Z,57.00
2017-06-14T00:42:37.239Z,57.10
2017-06-14T00:45:05.317Z,57.00
2017-06-14T00:47:33.378Z,57.10
2017-06-14T00:50:01.451Z,57.50
2017-06-14T00:52:29.514Z,57.60
2017-06-14T00:54:57.558Z,57.60
2017-06-14T00:57:26.374Z,57.50
2017-06-14T00:59:54.446Z,57.50
2017-06-14T01:02:22.504Z,57.50
2017-06-14T01:04:50.550Z,57.60
2017-06-14T01:07:19.382Z,57.40
2017-06-14T01:09:47.542Z,57.30
2017-06-14T01:12:16.346Z,57.50
2017-06-14T01:14:44.403Z,57.50
2017-06-14T01:17:12.487Z,57.80
2017-06-14T01:19:40.547Z,57.70
2017-06-14T01:22:08.622Z,57.70
2017-06-14T01:24:36.687Z,57.80
2017-06-14T01:27:04.735Z,58.00
2017-06-14T01:29:33.575Z,58.60
2017-06-14T01:32:01.635Z,58.00
2017-06-14T01:34:29.687Z,57.80
2017-06-14T01:36:57.771Z,57.80
2017-06-14T01:39:25.832Z,57.60
2017-06-14T01:41:53.882Z,58.10
2017-06-14T01:44:21.950Z,57.40
2017-06-14T01:46:50.779Z,57.50
2017-06-14T01:49:18.855Z,57.50
2017-06-14T01:51:46.907Z,57.60
2017-06-14T01:54:14.958Z,57.80
2017-06-14T01:56:43.050Z,57.80
2017-06-14T01:59:11.871Z,57.80
2017-06-14T02:01:39.935Z,57.50
2017-06-14T02:04:08.839Z,58.10
2017-06-14T02:06:36.878Z,57.40
2017-06-14T02:09:06.917Z,57.50
2017-06-14T02:11:35.871Z,57.20
2017-06-14T02:14:03.932Z,57.00
2017-06-14T02:16:31.994Z,57.10
2017-06-14T02:19:00.063Z,57.20
2017-06-14T02:21:28.336Z,57.10
2017-06-14T02:23:56.396Z,57.10
2017-06-14T02:26:24.432Z,57.00
2017-06-14T02:28:53.242Z,57.10
2017-06-14T02:31:21.335Z,57.10
2017-06-14T02:33:49.395Z,57.10
2017-06-14T02:36:17.863Z,57.20
2017-06-14T02:38:45.937Z,57.20
2017-06-14T02:41:13.991Z,57.20
2017-06-14T02:43:42.043Z,57.20
2017-06-14T02:46:10.879Z,57.40
2017-06-14T02:48:38.955Z,57.40
2017-06-14T02:51:07.018Z,57.50
2017-06-14T02:53:35.075Z,57.40
2017-06-14T02:56:03.142Z,57.30
2017-06-14T02:58:31.215Z,57.40
2017-06-14T03:00:59.314Z,57.50
2017-06-14T03:03:27.394Z,57.50
2017-06-14T03:05:55.455Z,57.70
2017-06-14T03:08:23.502Z,57.50
2017-06-14T03:10:51.572Z,57.70
2017-06-14T03:13:19.618Z,57.70
2017-06-14T03:15:47.690Z,57.60
2017-06-14T03:18:15.743Z,57.50
2017-06-14T03:20:50.231Z,57.60
2017-06-14T03:23:18.284Z,57.60
2017-06-14T03:25:46.351Z,57.90
2017-06-14T03:28:14.421Z,58.10
2017-06-14T03:30:42.482Z,58.70
2017-06-14T03:33:10.563Z,58.90
2017-06-14T03:35:38.607Z,58.80
2017-06-14T03:38:07.446Z,58.50
2017-06-14T03:40:35.529Z,58.40
2017-06-14T03:43:03.578Z,58.10
2017-06-14T03:45:31.645Z,58.00
2017-06-14T03:47:59.710Z,58.00
2017-06-14T03:50:27.762Z,58.20
2017-06-14T03:52:55.847Z,58.20
2017-06-14T03:55:23.906Z,58.50
2017-06-14T03:57:51.959Z,58.50
2017-06-14T04:00:20.026Z,58.50
2017-06-14T04:02:48.086Z,58.40
2017-06-14T04:05:16.168Z,58.50
2017-06-14T04:07:44.228Z,58.40
2017-06-14T04:10:12.285Z,58.20
2017-06-14T04:12:41.068Z,58.10
2017-06-14T04:15:09.830Z,58.00
2017-06-14T04:17:38.655Z,57.50
2017-06-14T04:20:06.743Z,57.40
2017-06-14T04:22:34.792Z,57.50
2017-06-14T04:25:02.852Z,57.50
2017-06-14T04:27:31.526Z,57.60
2017-06-14T04:29:59.582Z,58.00
2017-06-14T04:32:28.419Z,58.20
2017-06-14T04:34:56.506Z,58.10
2017-06-14T04:37:24.556Z,58.00
2017-06-14T04:39:52.618Z,58.10
2017-06-14T04:42:20.692Z,57.70
2017-06-14T04:44:48.743Z,57.40
2017-06-14T04:47:17.578Z,57.00
2017-06-14T04:49:45.643Z,56.90
2017-06-14T04:52:13.711Z,56.80
2017-06-14T04:54:46.131Z,56.60
2017-06-14T04:57:14.198Z,56.20
2017-06-14T04:59:42.263Z,56.20
2017-06-14T05:02:11.270Z,56.00
2017-06-14T05:04:38.494Z,56.00
2017-06-14T05:07:06.595Z,56.40
2017-06-14T05:09:34.702Z,56.00
2017-06-14T05:12:02.940Z,56.10
2017-06-14T05:14:31.006Z,56.40
2017-06-14T05:16:59.081Z,56.50
2017-06-14T05:19:27.175Z,56.40
2017-06-14T05:21:55.258Z,56.20
2017-06-14T05:24:23.318Z,56.30
2017-06-14T05:26:51.386Z,56.20
2017-06-14T05:29:19.458Z,56.20
2017-06-14T05:31:47.519Z,56.10
2017-06-14T05:34:15.615Z,55.60
2017-06-14T05:36:44.461Z,54.90
2017-06-14T05:39:12.567Z,54.80
2017-06-14T05:41:40.630Z,54.80
2017-06-14T05:44:08.711Z,55.20
2017-06-14T05:46:36.786Z,55.50
2017-06-14T05:49:05.718Z,55.00
2017-06-14T05:51:34.526Z,54.90
2017-06-14T05:54:02.591Z,54.90
2017-06-14T05:56:30.656Z,54.60
2017-06-14T05:58:58.739Z,54.70
2017-06-14T06:01:26.806Z,54.40
2017-06-14T06:03:54.899Z,54.10
2017-06-14T06:06:22.942Z,54.00
2017-06-14T06:08:51.005Z,53.90
2017-06-14T06:11:19.092Z,54.30
2017-06-14T06:13:47.151Z,54.30
2017-06-14T06:16:15.235Z,54.10
2017-06-14T06:18:43.323Z,54.10
2017-06-14T06:21:11.392Z,53.90
2017-06-14T06:23:39.442Z,53.70
2017-06-14T06:26:07.498Z,54.00
2017-06-14T06:28:35.628Z,54.30
2017-06-14T06:31:03.682Z,55.20
2017-06-14T06:33:31.758Z,54.80
2017-06-14T06:35:59.815Z,54.70
2017-06-14T06:38:27.866Z,53.80
2017-06-14T06:40:55.939Z,53.90
2017-06-14T06:43:24.017Z,53.50
2017-06-14T06:45:52.095Z,53.40
2017-06-14T06:48:20.146Z,53.50
2017-06-14T06:50:48.193Z,53.40
2017-06-14T06:53:16.271Z,53.70
2017-06-14T06:55:45.677Z,52.60
2017-06-14T06:58:13.740Z,52.30
2017-06-14T07:00:42.566Z,53.10
2017-06-14T07:03:10.698Z,53.60
2017-06-14T07:05:38.766Z,52.90
2017-06-14T07:08:07.584Z,52.40
2017-06-14T07:10:35.660Z,52.40
2017-06-14T07:13:03.736Z,52.30
2017-06-14T07:15:31.819Z,51.80
2017-06-14T07:17:59.881Z,52.40
2017-06-14T07:20:27.959Z,51.90
2017-06-14T07:22:56.003Z,52.00
2017-06-14T07:25:24.090Z,52.80
2017-06-14T07:27:52.167Z,51.90
2017-06-14T07:30:20.255Z,50.60
2017-06-14T07:32:48.312Z,51.00
2017-06-14T07:35:16.406Z,49.90
2017-06-14T07:37:44.455Z,49.20
2017-06-14T07:40:12.527Z,49.50
2017-06-14T07:42:41.224Z,49.70
2017-06-14T07:45:09.284Z,48.50
2017-06-14T07:47:37.360Z,48.60
2017-06-14T07:50:05.415Z,48.30
2017-06-14T07:52:33.476Z,47.10
2017-06-14T07:55:01.555Z,46.30
2017-06-14T07:57:29.630Z,46.80
2017-06-14T07:59:58.458Z,45.00
2017-06-14T08:02:26.511Z,44.90
2017-06-14T08:04:55.349Z,44.70
2017-06-14T08:07:23.399Z,44.70
2017-06-14T08:09:51.539Z,44.50
2017-06-14T08:12:20.380Z,44.10
2017-06-14T08:14:48.729Z,44.00
2017-06-14T08:17:16.801Z,43.00
2017-06-14T08:19:44.849Z,43.90
2017-06-14T08:22:13.689Z,41.00
2017-06-14T08:24:41.746Z,40.90
2017-06-14T08:27:09.822Z,40.10
2017-06-14T08:29:37.893Z,40.60
2017-06-14T08:32:05.947Z,40.60
2017-06-14T08:34:34.011Z,41.20
2017-06-14T08:37:02.083Z,40.60
2017-06-14T08:39:30.151Z,40.10
2017-06-14T08:41:58.245Z,37.80
2017-06-14T08:44:26.306Z,38.00
2017-06-14T08:46:54.370Z,39.50
2017-06-14T08:49:22.461Z,39.10
2017-06-14T08:51:50.536Z,38.40
2017-06-14T08:54:18.612Z,38.00
2017-06-14T08:56:47.264Z,37.40
2017-06-14T08:59:16.112Z,36.00
2017-06-14T09:01:44.183Z,35.80
2017-06-14T09:04:12.235Z,34.60
2017-06-14T09:06:40.319Z,35.50
2017-06-14T09:09:08.375Z,34.80
2017-06-14T09:11:36.610Z,34.40
2017-06-14T09:14:04.687Z,34.00
2017-06-14T09:16:34.162Z,31.10
2017-06-14T09:19:02.223Z,31.00
2017-06-14T09:21:30.298Z,27.90
2017-06-14T09:23:58.438Z,24.80
2017-06-14T09:26:26.512Z,22.30
2017-06-14T09:28:54.580Z,20.30
2017-06-14T09:31:22.646Z,18.80
2017-06-14T09:33:50.701Z,18.20
2017-06-14T09:36:19.553Z,17.10
2017-06-14T09:38:47.622Z,17.00
2017-06-14T09:41:15.695Z,15.90
2017-06-14T09:43:43.742Z,16.10
2017-06-14T09:46:12.456Z,16.00
2017-06-14T09:48:40.531Z,15.90
2017-06-14T09:51:08.623Z,17.30
2017-06-14T09:53:37.460Z,16.90
2017-06-14T09:56:05.511Z,16.30
2017-06-14T09:58:33.614Z,16.30
2017-06-14T10:01:02.429Z,16.40
2017-06-14T10:03:30.495Z,16.40
2017-06-14T10:05:58.569Z,17.30
2017-06-14T10:08:26.664Z,16.20
2017-06-14T10:10:54.724Z,15.40
2017-06-14T10:13:22.766Z,14.90
2017-06-14T10:15:51.615Z,14.50
2017-06-14T10:18:19.687Z,14.40
2017-06-14T10:20:47.755Z,14.20
2017-06-14T10:23:15.865Z,13.70
2017-06-14T10:25:44.049Z,13.90
2017-06-14T10:28:12.866Z,14.50
2017-06-14T10:30:40.978Z,14.40
2017-06-14T10:33:09.040Z,14.20
2017-06-14T10:35:37.319Z,14.00
2017-06-14T10:38:05.391Z,14.30
2017-06-14T10:40:33.934Z,14.50
2017-06-14T10:43:01.990Z,14.70
2017-06-14T10:45:30.063Z,14.30
2017-06-14T10:47:58.151Z,14.60
2017-06-14T10:50:26.223Z,14.60
2017-06-14T10:52:54.299Z,14.60
2017-06-14T10:55:22.378Z,15.30
2017-06-14T10:57:50.430Z,15.50
2017-06-14T11:00:19.343Z,15.50
2017-06-14T11:02:48.145Z,15.80
2017-06-14T11:05:16.213Z,15.70
2017-06-14T11:07:44.283Z,14.90
2017-06-14T11:10:12.375Z,14.40
2017-06-14T11:12:40.431Z,14.00
2017-06-14T11:15:08.499Z,13.60
2017-06-14T11:17:36.587Z,14.20
2017-06-14T11:20:04.650Z,13.90
2017-06-14T11:22:32.750Z,14.70
2017-06-14T11:25:00.803Z,14.80
2017-06-14T11:27:29.571Z,14.60
2017-06-14T11:29:57.652Z,14.50
2017-06-14T11:32:25.720Z,15.20
2017-06-14T11:34:53.875Z,15.10
2017-06-14T11:37:21.942Z,16.40
2017-06-14T11:39:50.762Z,16.80
2017-06-14T11:42:18.857Z,16.70
2017-06-14T11:44:46.916Z,17.80
2017-06-14T11:47:14.962Z,18.30
2017-06-14T11:49:43.033Z,17.50
2017-06-14T11:52:11.096Z,17.00
2017-06-14T11:54:39.304Z,17.10
2017-06-14T11:57:07.367Z,17.40
2017-06-14T11:59:35.517Z,16.80
2017-06-14T12:02:03.568Z,17.20
2017-06-14T12:04:31.635Z,17.60
2017-06-14T12:06:59.682Z,18.80
2017-06-14T12:09:27.755Z,20.90
2017-06-14T12:11:55.827Z,22.70
2017-06-14T12:14:23.889Z,25.00
2017-06-14T12:16:51.975Z,25.90
2017-06-14T12:19:20.041Z,26.40
2017-06-14T12:21:48.088Z,26.80
2017-06-14T12:24:16.152Z,26.90
2017-06-14T12:26:44.980Z,27.90
2017-06-14T12:29:13.137Z,27.80
2017-06-14T12:31:41.928Z,28.50
2017-06-14T12:34:09.999Z,28.50
2017-06-14T12:36:38.080Z,28.20
2017-06-14T12:39:06.134Z,27.80
2017-06-14T12:41:34.224Z,28.00
2017-06-14T12:44:02.295Z,28.20
2017-06-14T12:46:30.360Z,29.00
2017-06-14T12:48:58.422Z,28.80
2017-06-14T12:51:26.491Z,29.30
2017-06-14T12:53:55.334Z,28.80
2017-06-14T12:56:23.414Z,30.00
2017-06-14T12:58:51.540Z,29.70
2017-06-14T13:01:20.367Z,29.00
2017-06-14T13:03:48.434Z,28.90
2017-06-14T13:06:16.499Z,29.00
2017-06-14T13:08:44.603Z,28.40
2017-06-14T13:11:12.699Z,28.20
2017-06-14T13:13:40.757Z,27.50
2017-06-14T13:16:08.815Z,27.60
2017-06-14T13:18:36.889Z,27.20
2017-06-14T13:21:04.935Z,28.50
2017-06-14T13:23:33.041Z,27.50
2017-06-14T13:26:01.076Z,27.80
2017-06-14T13:28:29.139Z,29.20
2017-06-14T13:30:57.204Z,29.80
2017-06-14T13:33:25.271Z,29.60
2017-06-14T13:35:53.354Z,28.50
2017-06-14T13:38:21.452Z,29.40
2017-06-14T13:40:49.532Z,29.40
2017-06-14T13:43:17.589Z,29.50
2017-06-14T13:45:45.643Z,29.30
2017-06-14T13:48:13.772Z,29.40
2017-06-14T13:50:42.604Z,29.40
2017-06-14T13:53:10.667Z,29.40
2017-06-14T13:55:38.735Z,29.30
2017-06-14T13:58:06.818Z,29.10
2017-06-14T14:00:35.624Z,28.80
2017-06-14T14:03:03.707Z,28.50
2017-06-14T14:05:32.530Z,28.20
2017-06-14T14:08:00.637Z,28.20
2017-06-14T14:10:28.695Z,28.20
2017-06-14T14:12:56.777Z,27.90
2017-06-14T14:15:24.839Z,28.40
2017-06-14T14:17:52.895Z,28.50
2017-06-14T14:20:20.963Z,28.40
2017-06-14T14:22:49.020Z,28.20
2017-06-14T14:25:17.081Z,27.60
2017-06-14T14:27:45.173Z,27.10
2017-06-14T14:30:13.272Z,28.40
2017-06-14T14:32:41.322Z,28.60
2017-06-14T14:35:09.414Z,28.30
2017-06-14T14:37:37.467Z,28.50
2017-06-14T14:40:05.531Z,29.20
2017-06-14T14:42:33.639Z,29.20
2017-06-14T14:45:01.701Z,29.00
2017-06-14T14:47:29.760Z,28.30
2017-06-14T14:49:57.852Z,29.20
2017-06-14T14:52:25.894Z,29.90
2017-06-14T14:54:53.956Z,30.10
2017-06-14T14:57:22.058Z,29.30
2017-06-14T14:59:50.123Z,29.50
2017-06-14T15:02:18.207Z,29.40
2017-06-14T15:04:47.030Z,30.00
2017-06-14T15:07:15.116Z,29.50
2017-06-14T15:09:43.179Z,30.10
2017-06-14T15:12:11.260Z,31.50
2017-06-14T15:14:39.327Z,30.40
2017-06-14T15:17:07.403Z,30.00
2017-06-14T15:19:35.469Z,30.40
2017-06-14T15:22:03.523Z,30.00
2017-06-14T15:24:31.658Z,30.00
2017-06-14T15:26:59.764Z,30.40
2017-06-14T15:29:27.834Z,30.40
2017-06-14T15:31:56.763Z,30.00
2017-06-14T15:34:24.983Z,30.50
2017-06-14T15:36:53.856Z,30.00
2017-06-14T15:39:21.936Z,30.00
2017-06-14T15:41:49.959Z,30.20
2017-06-14T15:44:18.031Z,30.20
2017-06-14T15:46:46.092Z,30.50
2017-06-14T15:49:14.163Z,30.80
2017-06-14T15:51:42.242Z,30.40
2017-06-14T15:54:10.302Z,30.70
2017-06-14T15:56:39.138Z,31.20
2017-06-14T15:59:08.006Z,32.80
2017-06-14T16:01:36.755Z,32.20
2017-06-14T16:04:05.614Z,31.80
2017-06-14T16:06:33.675Z,31.80
2017-06-14T16:09:01.756Z,31.90
2017-06-14T16:11:29.814Z,32.20
2017-06-14T16:13:57.881Z,31.80
2017-06-14T16:16:25.959Z,32.80
2017-06-14T16:18:54.035Z,32.50
2017-06-14T16:21:22.116Z,33.20
2017-06-14T16:23:50.187Z,32.90
2017-06-14T16:26:18.257Z,33.30
2017-06-14T16:28:46.330Z,33.80
2017-06-14T16:31:14.411Z,33.80
2017-06-14T16:33:43.251Z,34.80
2017-06-14T16:36:11.324Z,34.10
2017-06-14T16:38:39.394Z,34.00
2017-06-14T16:41:08.031Z,34.00
2017-06-14T16:43:36.865Z,33.10
2017-06-14T16:46:04.935Z,33.50
2017-06-14T16:48:32.992Z,34.10
2017-06-14T16:51:01.066Z,34.20
2017-06-14T16:53:29.139Z,34.20
2017-06-14T16:55:57.192Z,34.40
2017-06-14T16:58:25.275Z,34.40
2017-06-14T17:00:53.362Z,34.40
2017-06-14T17:03:21.444Z,34.50
2017-06-14T17:05:49.526Z,35.50
2017-06-14T17:08:17.590Z,34.60
2017-06-14T17:10:45.664Z,34.40
2017-06-14T17:13:13.758Z,34.30
2017-06-14T17:15:41.811Z,34.50
2017-06-14T17:18:09.863Z,34.80
2017-06-14T17:20:37.932Z,35.30
2017-06-14T17:23:06.018Z,35.30
2017-06-14T17:25:34.096Z,35.20
2017-06-14T17:28:02.152Z,35.50
2017-06-14T17:30:30.268Z,35.40
2017-06-14T17:32:58.309Z,35.50
2017-06-14T17:35:26.367Z,35.60
2017-06-14T17:37:54.448Z,35.80
2017-06-14T17:40:22.493Z,36.40
2017-06-14T17:42:50.575Z,36.50
2017-06-14T17:45:18.734Z,36.30
2017-06-14T17:47:46.807Z,36.10
2017-06-14T17:50:14.874Z,36.10
2017-06-14T17:52:42.983Z,36.20
2017-06-14T17:55:11.056Z,36.10
2017-06-14T17:57:39.144Z,36.50
2017-06-14T18:00:07.208Z,36.10
2017-06-14T18:02:35.299Z,36.20
2017-06-14T18:05:03.362Z,36.00
2017-06-14T18:07:31.406Z,36.10
2017-06-14T18:09:59.495Z,36.30
2017-06-14T18:12:27.575Z,36.30
2017-06-14T18:14:55.638Z,36.60
2017-06-14T18:17:23.724Z,36.50
2017-06-14T18:19:51.791Z,37.10
2017-06-14T18:22:19.854Z,37.10
2017-06-14T18:24:47.936Z,37.00
2017-06-14T18:27:16.001Z,37.20
2017-06-14T18:29:44.071Z,37.30
2017-06-14T18:32:12.162Z,36.70
2017-06-14T18:34:40.223Z,36.80
2017-06-14T18:37:08.286Z,36.90
2017-06-14T18:39:36.362Z,37.00
2017-06-14T18:42:04.421Z,37.10
2017-06-14T18:44:32.471Z,37.30
2017-06-14T18:47:00.548Z,37.10
2017-06-14T18:49:28.606Z,36.90
2017-06-14T18:51:56.686Z,37.10
2017-06-14T18:54:24.755Z,37.20
2017-06-14T18:56:52.836Z,37.10
2017-06-14T18:59:21.134Z,37.50
2017-06-14T19:01:49.225Z,37.70
2017-06-14T19:04:17.266Z,37.60
2017-06-14T19:06:45.371Z,37.80
2017-06-14T19:09:14.216Z,38.90
2017-06-14T19:11:42.289Z,38.80
2017-06-14T19:14:10.371Z,38.70
2017-06-14T19:16:38.533Z,39.20
2017-06-14T19:19:06.620Z,40.40
2017-06-14T19:21:34.692Z,41.00
2017-06-14T19:24:08.640Z,41.20
2017-06-14T19:26:37.489Z,42.00
2017-06-14T19:29:05.535Z,42.00
2017-06-14T19:31:33.631Z,42.20
2017-06-14T19:34:13.465Z,42.40
2017-06-14T19:36:47.388Z,42.50
2017-06-14T19:39:15.451Z,42.20
2017-06-14T19:41:44.708Z,42.60
2017-06-14T19:44:12.831Z,42.70
2017-06-14T19:46:40.911Z,42.50
2017-06-14T19:49:09.772Z,42.70
2017-06-14T19:51:37.860Z,42.80
2017-06-14T19:54:05.951Z,42.90
2017-06-14T19:56:34.803Z,43.80
2017-06-14T19:59:02.936Z,43.20
2017-06-14T20:01:31.009Z,43.10
2017-06-14T20:03:59.855Z,42.20
2017-06-14T20:06:28.712Z,42.30
2017-06-14T20:08:56.785Z,42.20
2017-06-14T20:11:24.872Z,42.10
2017-06-14T20:13:52.961Z,41.80
2017-06-14T20:16:21.787Z,41.80
2017-06-14T20:18:49.903Z,41.80
2017-06-14T20:21:17.978Z,41.80
2017-06-14T20:23:46.068Z,41.80
2017-06-14T20:26:14.923Z,43.60
2017-06-14T20:28:43.010Z,43.40
2017-06-14T20:31:11.156Z,44.60
2017-06-14T20:33:39.211Z,44.90
2017-06-14T20:36:07.298Z,45.30
2017-06-14T20:38:35.367Z,45.40
2017-06-14T20:41:03.439Z,45.10
2017-06-14T20:43:31.519Z,45.00
2017-06-14T20:45:59.577Z,44.90
2017-06-14T20:48:27.649Z,45.20
2017-06-14T20:50:55.771Z,45.40
2017-06-14T20:53:24.639Z,45.80
2017-06-14T20:55:52.721Z,45.60
2017-06-14T20:58:20.784Z,45.80
2017-06-14T21:00:48.933Z,46.10
2017-06-14T21:03:17.763Z,46.30
2017-06-14T21:05:45.831Z,46.30
2017-06-14T21:08:13.897Z,46.20
2017-06-14T21:10:41.981Z,46.10
2017-06-14T21:13:10.053Z,46.00
2017-06-14T21:15:38.115Z,46.20
2017-06-14T21:18:06.212Z,46.40
2017-06-14T21:20:35.077Z,46.60
2017-06-14T21:23:03.120Z,46.60
2017-06-14T21:25:31.228Z,46.80
2017-06-14T21:27:59.292Z,47.20
2017-06-14T21:30:27.367Z,47.60
2017-06-14T21:32:55.473Z,48.00
2017-06-14T21:35:24.307Z,47.30
2017-06-14T21:37:52.391Z,47.30
2017-06-14T21:40:20.452Z,47.20
2017-06-14T21:42:48.553Z,47.30
2017-06-14T21:45:17.452Z,46.50
2017-06-14T21:47:45.491Z,46.50
2017-06-14T21:50:13.565Z,46.50
2017-06-14T21:52:41.633Z,46.40
2017-06-14T21:55:09.679Z,46.40
2017-06-14T21:57:37.777Z,46.30
2017-06-14T22:00:05.822Z,46.20
2017-06-14T22:02:33.880Z,46.10
2017-06-14T22:05:01.955Z,45.80
2017-06-14T22:07:30.803Z,45.80
2017-06-14T22:09:59.620Z,45.80
2017-06-14T22:12:27.676Z,45.60
2017-06-14T22:14:55.752Z,45.30
2017-06-14T22:17:23.818Z,45.20
2017-06-14T22:19:51.892Z,45.20
2017-06-14T22:22:19.948Z,45.20
2017-06-14T22:24:48.027Z,45.30
2017-06-14T22:27:16.084Z,45.40
2017-06-14T22:29:44.149Z,45.70
2017-06-14T22:32:12.226Z,45.90
2017-06-14T22:34:40.288Z,46.00
2017-06-14T22:37:08.368Z,46.20
2017-06-14T22:39:36.418Z,46.40
2017-06-14T22:42:04.491Z,46.70
2017-06-14T22:44:32.563Z,46.80
2017-06-14T22:47:00.631Z,46.80
2017-06-14T22:49:28.696Z,46.70
2017-06-14T22:51:56.775Z,46.80
2017-06-14T22:54:24.838Z,46.90
2017-06-14T22:56:52.908Z,46.90
2017-06-14T22:59:20.979Z,47.00
2017-06-14T23:01:49.026Z,47.10
2017-06-14T23:04:17.091Z,47.40
2017-06-14T23:06:47.082Z,47.70
2017-06-14T23:09:15.202Z,47.70
2017-06-14T23:11:43.254Z,48.00
2017-06-14T23:14:12.071Z,48.20
2017-06-14T23:16:40.143Z,48.10
2017-06-14T23:19:08.220Z,48.20
2017-06-14T23:21:36.326Z,48.40
2017-06-14T23:24:04.410Z,48.50
2017-06-14T23:26:33.251Z,48.50
2017-06-14T23:29:01.310Z,48.50
2017-06-14T23:31:29.375Z,48.70
2017-06-14T23:33:57.427Z,48.60
2017-06-14T23:36:26.255Z,48.90
2017-06-14T23:38:54.322Z,48.80
2017-06-14T23:41:22.382Z,49.00
2017-06-14T23:43:50.455Z,49.10
2017-06-14T23:46:18.555Z,49.10
2017-06-14T23:48:46.614Z,49.10
2017-06-14T23:51:14.687Z,49.00
2017-06-14T23:53:42.757Z,49.00
2017-06-14T23:56:10.815Z,49.00
2017-06-14T23:58:38.890Z,49.00
